Time;durP1;ratioP1;P1;durP2;ratioP2;P2;SDS_P1;SDS_P2;PMS_P1;PMS_P2;Temp;Humidity;BMP_temperature;BMP_pressure;BME280_temperature;BME280_humidity;BME280_pressure;Samples;Min_cycle;Max_cycle;Signal;HPM_P1;HPM_P2
2022/05/23 00:00:00;;;;;;;3.13;1.10;;;15.60;99.90;;;;;;4995492;28;20232;-84
2022/05/23 00:02:31;;;;;;;2.60;0.95;;;15.50;99.90;;;;;;4989619;28;20654;-83
2022/05/23 00:05:01;;;;;;;3.97;0.88;;;15.60;99.90;;;;;;4995247;28;20597;-83
2022/05/23 00:07:37;;;;;;;4.38;1.15;;;15.60;99.90;;;;;;4986776;28;20211;-84
2022/05/23 00:10:09;;;;;;;2.33;0.70;;;15.70;99.90;;;;;;4993026;28;20203;-83
2022/05/23 00:12:40;;;;;;;2.15;0.80;;;15.80;99.90;;;;;;4990422;28;20612;-83
2022/05/23 00:15:12;;;;;;;3.03;0.82;;;16.00;99.90;;;;;;4993887;28;20203;-82
2022/05/23 00:17:43;;;;;;;4.30;0.82;;;16.10;99.90;;;;;;4993812;28;20242;-83
2022/05/23 00:20:16;;;;;;;6.78;2.45;;;16.00;99.90;;;;;;4993289;28;20207;-83
2022/05/23 00:22:48;;;;;;;1.65;0.70;;;15.90;99.90;;;;;;4993223;28;20282;-83
2022/05/23 00:25:20;;;;;;;1.80;0.88;;;15.80;99.90;;;;;;4992495;28;20245;-84
2022/05/23 00:27:50;;;;;;;3.05;0.98;;;15.70;99.90;;;;;;4991937;28;20196;-84
2022/05/23 00:30:23;;;;;;;3.88;1.02;;;15.70;99.90;;;;;;4993187;28;20199;-84
2022/05/23 00:35:44;;;;;;;1.63;0.77;;;15.60;99.90;;;;;;4989320;28;20686;-84
2022/05/23 00:38:17;;;;;;;4.05;0.90;;;15.60;99.90;;;;;;4990447;28;20223;-84
2022/05/23 00:43:13;;;;;;;3.67;1.17;;;15.60;99.90;;;;;;4992577;28;20199;-84
2022/05/23 00:43:42;;;;;;;4.25;1.08;;;15.60;99.90;;;;;;4991508;28;20235;-83
2022/05/23 00:46:15;;;;;;;4.32;1.23;;;15.50;99.90;;;;;;4994142;28;20250;-83
2022/05/23 00:48:48;;;;;;;5.93;1.23;;;15.50;99.90;;;;;;4992505;28;20207;-85
2022/05/23 00:51:20;;;;;;;4.32;1.20;;;15.60;99.90;;;;;;4994736;28;20203;-84
2022/05/23 00:53:55;;;;;;;5.45;2.00;;;15.50;99.90;;;;;;4994021;28;20253;-84
2022/05/23 00:56:30;;;;;;;2.53;1.30;;;15.60;99.90;;;;;;4993896;28;20228;-84
2022/05/23 00:59:05;;;;;;;4.40;1.13;;;15.50;99.90;;;;;;4993549;28;20228;-83
2022/05/23 01:01:39;;;;;;;4.53;1.60;;;15.60;99.90;;;;;;4994268;28;20238;-84
2022/05/23 01:04:10;;;;;;;5.20;1.38;;;15.60;99.90;;;;;;4987410;28;20242;-84
2022/05/23 01:06:40;;;;;;;5.20;1.63;;;15.60;99.90;;;;;;4993800;28;20204;-83
2022/05/23 01:09:14;;;;;;;4.45;1.35;;;15.70;99.90;;;;;;4992759;28;20199;-83
2022/05/23 01:11:44;;;;;;;2.80;1.30;;;15.70;99.90;;;;;;4993603;28;20719;-83
2022/05/23 01:14:15;;;;;;;4.75;1.10;;;15.70;99.90;;;;;;4994678;28;20207;-81
2022/05/23 01:16:46;;;;;;;2.50;1.17;;;15.80;99.90;;;;;;4992109;28;20258;-84
2022/05/23 01:19:16;;;;;;;2.63;1.20;;;15.80;99.90;;;;;;4992355;28;20254;-83
2022/05/23 01:21:55;;;;;;;3.63;0.95;;;15.80;99.90;;;;;;4991479;28;20203;-84
2022/05/23 01:24:34;;;;;;;4.45;1.30;;;15.80;99.90;;;;;;4988721;28;20206;-82
2022/05/23 01:27:09;;;;;;;3.10;0.93;;;15.80;99.90;;;;;;4991086;28;20269;-84
2022/05/23 01:29:39;;;;;;;2.47;0.70;;;15.90;99.90;;;;;;4992684;28;20203;-83
2022/05/23 01:32:11;;;;;;;1.35;0.77;;;15.90;99.90;;;;;;4992906;28;20199;-82
2022/05/23 01:34:42;;;;;;;2.67;0.70;;;15.90;99.90;;;;;;4986513;28;20203;-84
2022/05/23 01:37:13;;;;;;;2.88;0.73;;;15.80;99.90;;;;;;4990426;28;20303;-83
2022/05/23 01:39:44;;;;;;;1.00;0.70;;;15.70;99.90;;;;;;4993025;28;20202;-86
2022/05/23 01:42:16;;;;;;;4.43;0.90;;;15.70;99.90;;;;;;4989809;28;20211;-83
2022/05/23 01:44:47;;;;;;;2.60;0.77;;;15.70;99.90;;;;;;4990576;28;20254;-83
2022/05/23 01:47:20;;;;;;;2.72;0.60;;;15.80;99.90;;;;;;4989539;28;20203;-86
2022/05/23 01:49:51;;;;;;;1.85;0.50;;;15.80;99.90;;;;;;4993245;28;20264;-85
2022/05/23 01:52:22;;;;;;;2.38;0.73;;;15.90;99.90;;;;;;4993847;28;20519;-84
2022/05/23 01:54:52;;;;;;;1.60;0.70;;;15.80;99.90;;;;;;4993208;28;20204;-83
2022/05/23 01:57:25;;;;;;;2.40;0.65;;;15.70;99.90;;;;;;4989550;28;20277;-84
2022/05/23 02:02:44;;;;;;;1.63;0.60;;;15.60;99.90;;;;;;4991992;28;20202;-84
2022/05/23 02:05:15;;;;;;;2.30;0.75;;;15.60;99.90;;;;;;4991810;28;20693;-84
2022/05/23 02:07:46;;;;;;;3.08;0.70;;;15.50;99.90;;;;;;4989950;28;20200;-83
2022/05/23 02:10:17;;;;;;;3.45;0.80;;;15.50;99.90;;;;;;4985922;28;20200;-84
2022/05/23 02:12:49;;;;;;;2.60;0.73;;;15.50;99.90;;;;;;4986325;28;20200;-83
2022/05/23 02:15:21;;;;;;;2.03;0.90;;;15.50;99.90;;;;;;4986485;28;20339;-83
2022/05/23 02:17:52;;;;;;;4.30;0.90;;;15.50;99.90;;;;;;4984117;28;20216;-84
2022/05/23 02:20:22;;;;;;;2.47;0.82;;;15.50;99.90;;;;;;4984073;28;20204;-83
2022/05/23 02:22:53;;;;;;;2.25;0.90;;;15.60;99.90;;;;;;4989648;28;20226;-83
2022/05/23 02:25:24;;;;;;;3.15;0.90;;;15.60;99.90;;;;;;4988693;28;20199;-83
2022/05/23 02:27:57;;;;;;;1.65;0.85;;;15.60;99.90;;;;;;4986642;28;20207;-83
2022/05/23 02:30:28;;;;;;;2.83;1.08;;;15.60;99.90;;;;;;4988158;28;20653;-84
2022/05/23 02:32:59;;;;;;;4.90;1.35;;;15.60;99.90;;;;;;4991149;28;20211;-83
2022/05/23 02:35:29;;;;;;;4.15;1.58;;;15.70;99.90;;;;;;4989792;28;20281;-84
2022/05/23 02:38:01;;;;;;;2.97;1.70;;;15.70;99.90;;;;;;4990466;28;20220;-84
2022/05/23 02:40:31;;;;;;;6.05;2.00;;;15.70;99.90;;;;;;4988352;28;20208;-84
2022/05/23 02:43:04;;;;;;;7.53;2.03;;;15.80;99.90;;;;;;4986917;28;20299;-86
2022/05/23 02:45:34;;;;;;;7.70;2.60;;;15.80;99.90;;;;;;4988661;28;20250;-84
2022/05/23 02:48:07;;;;;;;8.15;2.00;;;15.80;99.90;;;;;;4989095;28;20199;-85
2022/05/23 02:50:38;;;;;;;4.43;1.70;;;15.80;99.90;;;;;;4986602;28;20273;-84
2022/05/23 02:53:10;;;;;;;4.18;1.40;;;15.90;99.90;;;;;;4984181;28;20722;-85
2022/05/23 02:55:40;;;;;;;2.55;1.40;;;15.90;99.90;;;;;;4991521;28;20195;-84
2022/05/23 02:58:13;;;;;;;6.50;1.60;;;15.90;99.90;;;;;;4990874;28;20290;-84
2022/05/23 03:00:44;;;;;;;5.32;1.50;;;16.00;99.90;;;;;;4986983;28;20239;-86
2022/05/23 03:03:13;;;;;;;4.90;1.45;;;16.00;99.90;;;;;;4990775;28;20207;-84
2022/05/23 03:05:45;;;;;;;5.97;1.50;;;16.00;99.90;;;;;;4990424;28;20231;-85
2022/05/23 03:08:18;;;;;;;7.97;1.50;;;16.00;99.90;;;;;;4989593;28;20682;-85
2022/05/23 03:10:50;;;;;;;6.30;1.40;;;16.10;99.90;;;;;;4983569;28;20567;-85
2022/05/23 03:13:22;;;;;;;4.63;1.25;;;16.20;99.90;;;;;;4992329;28;20207;-86
2022/05/23 03:15:53;;;;;;;5.75;1.30;;;16.30;99.90;;;;;;4991004;28;20191;-86
2022/05/23 03:18:24;;;;;;;4.10;1.08;;;16.20;99.90;;;;;;4988367;28;20266;-85
2022/05/23 03:20:59;;;;;;;6.53;0.80;;;16.20;99.90;;;;;;4985956;28;20218;-87
2022/05/23 03:29:06;;;;;;;5.38;0.70;;;16.00;99.90;;;;;;5017040;28;20210;-87
2022/05/23 03:31:38;;;;;;;2.92;0.65;;;15.90;99.90;;;;;;4994529;28;20270;-87
2022/05/23 03:34:08;;;;;;;5.80;0.47;;;16.00;99.90;;;;;;4994704;28;20266;-87
2022/05/23 03:36:39;;;;;;;3.65;0.70;;;16.00;99.90;;;;;;4993815;28;20192;-90
2022/05/23 03:39:09;;;;;;;6.20;0.85;;;16.00;99.90;;;;;;4989439;28;20245;-86
2022/05/23 03:41:40;;;;;;;4.55;1.08;;;16.00;99.90;;;;;;4993976;28;20207;-92
2022/05/23 03:44:14;;;;;;;5.47;0.80;;;16.10;99.90;;;;;;4989293;28;20655;-88
2022/05/23 03:46:45;;;;;;;3.47;0.70;;;16.00;99.90;;;;;;4994751;28;20961;-89
2022/05/23 03:49:15;;;;;;;3.10;0.70;;;16.00;99.90;;;;;;4992211;28;20200;-88
2022/05/23 03:51:46;;;;;;;2.33;0.60;;;16.00;99.90;;;;;;4993449;28;20270;-88
2022/05/23 03:54:16;;;;;;;4.88;0.57;;;16.00;99.90;;;;;;4994029;28;20208;-91
2022/05/23 03:56:47;;;;;;;2.72;0.55;;;16.00;99.90;;;;;;4989948;28;20265;-86
2022/05/23 03:59:19;;;;;;;1.27;0.50;;;16.00;99.90;;;;;;4993184;28;20243;-86
2022/05/23 04:01:50;;;;;;;1.20;0.45;;;15.90;99.90;;;;;;4987446;28;20655;-86
2022/05/23 04:04:21;;;;;;;3.28;0.63;;;15.90;99.90;;;;;;4992244;28;20195;-84
2022/05/23 04:06:51;;;;;;;2.92;0.68;;;15.90;99.90;;;;;;4995009;28;20218;-83
2022/05/23 04:09:23;;;;;;;1.25;0.40;;;15.90;99.90;;;;;;4993071;28;20199;-86
2022/05/23 04:11:53;;;;;;;1.67;0.50;;;15.90;99.90;;;;;;4996238;28;20200;-87
2022/05/23 04:14:26;;;;;;;2.92;0.60;;;16.00;99.90;;;;;;4994252;28;20201;-85
2022/05/23 04:16:57;;;;;;;3.40;0.85;;;16.00;99.90;;;;;;4994153;28;20666;-85
2022/05/23 04:19:28;;;;;;;3.00;0.73;;;16.00;99.90;;;;;;4994160;28;20228;-81
2022/05/23 04:21:59;;;;;;;4.10;0.85;;;16.10;99.90;;;;;;4991202;28;20250;-81
2022/05/23 04:24:30;;;;;;;3.95;1.02;;;16.10;99.90;;;;;;4994769;28;20206;-82
2022/05/23 04:27:01;;;;;;;3.30;0.70;;;16.00;99.90;;;;;;4989843;28;20282;-82
2022/05/23 04:29:33;;;;;;;4.25;0.70;;;15.90;99.90;;;;;;4990485;28;20211;-83
2022/05/23 04:35:12;;;;;;;6.35;0.60;;;15.90;99.90;;;;;;4990745;28;20196;-82
2022/05/23 04:37:41;;;;;;;2.67;0.65;;;15.70;99.90;;;;;;4993603;28;20230;-88
2022/05/23 04:40:14;;;;;;;3.03;0.60;;;15.70;99.90;;;;;;4989369;28;20211;-88
2022/05/23 04:42:44;;;;;;;3.15;0.55;;;15.70;99.90;;;;;;4989809;28;20211;-86
2022/05/23 04:45:19;;;;;;;3.33;0.98;;;15.80;99.90;;;;;;4998049;28;20207;-87
2022/05/23 04:50:37;;;;;;;5.63;0.70;;;16.00;99.90;;;;;;4993829;28;20210;-90
2022/05/23 04:53:08;;;;;;;4.68;0.80;;;15.90;99.90;;;;;;4990457;28;20219;-87
2022/05/23 04:55:41;;;;;;;3.40;0.70;;;15.90;99.90;;;;;;4992968;28;20192;-85
2022/05/23 04:58:12;;;;;;;3.85;0.60;;;15.90;99.90;;;;;;4993511;28;20687;-87
2022/05/23 05:00:45;;;;;;;2.58;0.60;;;15.90;99.90;;;;;;4993387;28;20294;-86
2022/05/23 05:03:16;;;;;;;2.40;0.50;;;15.80;99.90;;;;;;4988698;28;20678;-89
2022/05/23 05:05:48;;;;;;;3.80;0.50;;;15.80;99.90;;;;;;4992578;28;20204;-88
2022/05/23 05:08:18;;;;;;;5.30;0.73;;;15.80;99.90;;;;;;4993174;28;20663;-87
2022/05/23 05:10:49;;;;;;;6.88;0.73;;;15.80;99.90;;;;;;4993012;28;20195;-86
2022/05/23 05:13:20;;;;;;;2.78;0.47;;;15.80;99.90;;;;;;4992990;28;20259;-86
2022/05/23 05:15:52;;;;;;;2.20;0.88;;;15.70;99.90;;;;;;4994541;28;20203;-86
2022/05/23 05:18:23;;;;;;;1.13;0.35;;;15.70;99.90;;;;;;4989227;28;20666;-84
2022/05/23 05:20:53;;;;;;;2.72;0.52;;;15.60;99.90;;;;;;4989376;28;20199;-86
2022/05/23 05:23:24;;;;;;;2.08;0.47;;;15.50;99.90;;;;;;4992606;28;20254;-85
2022/05/23 05:25:56;;;;;;;1.33;0.30;;;15.60;99.90;;;;;;4992945;28;20277;-86
2022/05/23 05:28:27;;;;;;;1.85;0.40;;;15.50;99.90;;;;;;4989842;28;20662;-86
2022/05/23 05:31:05;;;;;;;1.15;0.40;;;15.50;99.90;;;;;;4992539;28;20218;-87
2022/05/23 05:33:40;;;;;;;3.15;0.63;;;15.50;99.90;;;;;;4992110;28;20199;-87
2022/05/23 05:36:15;;;;;;;2.70;0.85;;;15.50;99.90;;;;;;4993114;28;20202;-87
2022/05/23 05:38:50;;;;;;;2.35;0.80;;;15.40;99.90;;;;;;4990566;28;20650;-88
2022/05/23 05:41:25;;;;;;;4.78;1.27;;;15.40;99.90;;;;;;4993788;28;20237;-88
2022/05/23 05:44:00;;;;;;;5.55;0.98;;;15.50;99.90;;;;;;4993523;28;20191;-88
2022/05/23 05:46:36;;;;;;;7.60;1.40;;;15.50;99.90;;;;;;4990014;28;20208;-88
2022/05/23 05:49:13;;;;;;;9.32;1.73;;;15.50;99.90;;;;;;4990489;28;20183;-88
2022/05/23 05:51:45;;;;;;;3.70;0.82;;;15.50;99.90;;;;;;4987377;28;20195;-88
2022/05/23 05:54:18;;;;;;;2.88;0.82;;;15.50;99.90;;;;;;4992159;28;20250;-88
2022/05/23 05:56:49;;;;;;;2.97;0.75;;;15.50;99.90;;;;;;4992189;28;20202;-88
2022/05/23 05:59:20;;;;;;;2.75;0.60;;;15.40;99.90;;;;;;4992017;28;20302;-87
2022/05/23 06:01:53;;;;;;;4.50;0.75;;;15.40;99.90;;;;;;4989912;28;20270;-88
2022/05/23 06:04:24;;;;;;;5.70;1.38;;;15.40;99.90;;;;;;4993135;28;20195;-87
2022/05/23 06:12:27;;;;;;;4.95;0.93;;;15.30;99.90;;;;;;4992215;28;20262;-87
2022/05/23 06:14:59;;;;;;;2.05;0.98;;;15.20;99.90;;;;;;4990277;28;20651;-86
2022/05/23 06:17:33;;;;;;;3.33;1.00;;;15.20;99.90;;;;;;4992443;28;20283;-88
2022/05/23 06:20:03;;;;;;;3.40;0.82;;;15.20;99.90;;;;;;4989261;28;20266;-87
2022/05/23 06:22:34;;;;;;;2.95;0.90;;;15.10;99.90;;;;;;4990745;28;20188;-88
2022/05/23 06:25:05;;;;;;;1.88;0.82;;;15.00;99.90;;;;;;4987489;28;20200;-87
2022/05/23 06:27:35;;;;;;;5.28;1.00;;;15.00;99.90;;;;;;4989825;28;20199;-86
2022/05/23 06:30:06;;;;;;;3.72;1.00;;;14.90;99.90;;;;;;4988694;28;20261;-87
2022/05/23 06:32:39;;;;;;;2.45;1.10;;;15.00;99.90;;;;;;4992245;28;20334;-86
2022/05/23 06:35:10;;;;;;;3.00;1.00;;;14.90;99.90;;;;;;4992094;28;20207;-87
2022/05/23 06:37:42;;;;;;;2.58;1.02;;;15.00;99.90;;;;;;4991844;28;20702;-87
2022/05/23 06:40:15;;;;;;;5.78;1.42;;;15.00;99.90;;;;;;4990509;28;20219;-86
2022/05/23 06:42:46;;;;;;;6.75;1.60;;;15.00;99.90;;;;;;4987858;28;20201;-86
2022/05/23 06:45:18;;;;;;;3.42;1.30;;;15.00;99.90;;;;;;4989207;28;20222;-86
2022/05/23 06:47:50;;;;;;;2.28;1.25;;;15.00;99.90;;;;;;4989340;28;20227;-87
2022/05/23 06:50:21;;;;;;;2.15;1.00;;;14.90;99.90;;;;;;4989385;28;20692;-86
2022/05/23 06:52:52;;;;;;;3.30;1.33;;;14.90;99.90;;;;;;4988452;28;20192;-87
2022/05/23 06:55:22;;;;;;;5.97;1.25;;;14.90;99.90;;;;;;4990157;28;20192;-86
2022/05/23 06:57:53;;;;;;;3.08;1.08;;;14.90;99.90;;;;;;4983830;28;20250;-86
2022/05/23 07:00:24;;;;;;;3.30;1.00;;;14.80;99.90;;;;;;4985421;28;20251;-86
2022/05/23 07:02:57;;;;;;;3.47;1.02;;;14.80;99.90;;;;;;4986996;28;20191;-86
2022/05/23 07:13:49;;;;;;;4.63;0.95;;;14.90;99.90;;;;;;4987091;28;20210;-85
2022/05/23 07:16:20;;;;;;;4.45;1.10;;;14.90;99.90;;;;;;4989889;28;20200;-85
2022/05/23 07:18:53;;;;;;;4.93;1.20;;;14.80;99.90;;;;;;4990187;28;20219;-86
2022/05/23 07:21:24;;;;;;;2.22;1.00;;;14.90;99.90;;;;;;4988778;28;20603;-85
2022/05/23 07:23:55;;;;;;;3.33;1.17;;;14.90;99.90;;;;;;4988518;28;20284;-86
2022/05/23 07:26:26;;;;;;;3.63;1.05;;;14.90;99.90;;;;;;4992104;28;20635;-86
2022/05/23 07:28:57;;;;;;;2.75;1.02;;;14.80;99.90;;;;;;4990912;28;20531;-85
2022/05/23 07:31:29;;;;;;;2.08;1.00;;;14.80;99.90;;;;;;4991783;28;20206;-84
2022/05/23 07:34:01;;;;;;;6.60;1.40;;;14.80;99.90;;;;;;4992950;28;20207;-84
2022/05/23 07:36:32;;;;;;;3.80;1.10;;;14.90;99.90;;;;;;4992037;28;20544;-87
2022/05/23 07:39:03;;;;;;;2.58;1.00;;;14.80;99.90;;;;;;4991596;28;20689;-86
2022/05/23 07:41:33;;;;;;;3.42;1.00;;;14.80;99.90;;;;;;4992409;28;20203;-85
2022/05/23 07:44:04;;;;;;;2.75;1.23;;;14.80;99.90;;;;;;4991864;28;20242;-84
2022/05/23 07:46:36;;;;;;;2.25;1.17;;;14.80;99.90;;;;;;4990711;28;20279;-85
2022/05/23 07:49:09;;;;;;;2.90;1.10;;;14.80;99.90;;;;;;4990147;28;20207;-85
2022/05/23 07:51:40;;;;;;;4.65;1.58;;;14.80;99.90;;;;;;4989577;28;20207;-83
2022/05/23 08:02:35;;;;;;;4.00;1.40;;;14.80;99.90;;;;;;4987359;28;20208;-84
2022/05/23 08:05:10;;;;;;;4.10;1.40;;;14.80;99.90;;;;;;4992054;28;20195;-84
2022/05/23 08:07:42;;;;;;;5.10;1.50;;;14.80;99.90;;;;;;4993476;28;20269;-84
2022/05/23 08:10:15;;;;;;;4.68;1.45;;;14.80;99.90;;;;;;4996033;28;20196;-85
2022/05/23 08:12:50;;;;;;;2.17;1.50;;;14.70;99.90;;;;;;4996036;28;20188;-84
2022/05/23 08:15:21;;;;;;;5.90;1.45;;;14.80;99.90;;;;;;4995944;28;20199;-86
2022/05/23 08:17:52;;;;;;;4.50;1.52;;;14.80;99.90;;;;;;4994136;28;20200;-84
2022/05/23 08:20:25;;;;;;;3.75;1.35;;;14.80;99.90;;;;;;4995577;28;20639;-84
2022/05/23 08:23:03;;;;;;;4.00;1.48;;;14.70;99.90;;;;;;4991837;28;20196;-85
2022/05/23 08:25:41;;;;;;;1.52;1.25;;;14.70;99.90;;;;;;4990727;28;20258;-84
2022/05/23 08:28:17;;;;;;;3.95;1.60;;;14.80;99.90;;;;;;4994490;28;20222;-83
2022/05/23 08:30:53;;;;;;;3.80;1.40;;;14.70;99.90;;;;;;4992505;28;20316;-83
2022/05/23 08:33:30;;;;;;;4.65;2.38;;;14.80;99.90;;;;;;4994052;28;20206;-84
2022/05/23 08:36:04;;;;;;;4.53;1.80;;;14.70;99.90;;;;;;4996135;28;20204;-84
2022/05/23 08:38:35;;;;;;;4.03;1.70;;;14.70;99.90;;;;;;4995836;28;20273;-84
2022/05/23 08:41:14;;;;;;;4.13;2.03;;;14.80;99.90;;;;;;4995423;28;20188;-83
2022/05/23 08:43:54;;;;;;;5.25;1.75;;;14.80;99.90;;;;;;4993007;28;20191;-83
2022/05/23 08:46:36;;;;;;;4.60;1.80;;;14.70;99.90;;;;;;4995517;28;20196;-84
2022/05/23 08:49:16;;;;;;;4.32;2.03;;;14.70;99.90;;;;;;4995012;28;20195;-83
2022/05/23 08:52:11;;;;;;;5.72;1.83;;;14.80;99.90;;;;;;4992963;28;20254;-83
2022/05/23 08:55:01;;;;;;;3.70;1.70;;;14.80;99.90;;;;;;4993349;28;20243;-85
2022/05/23 08:57:38;;;;;;;4.63;1.63;;;14.80;99.90;;;;;;4994144;28;20208;-83
2022/05/23 09:00:28;;;;;;;4.18;1.50;;;14.80;99.90;;;;;;4994337;28;20355;-84
2022/05/23 09:03:05;;;;;;;5.10;1.42;;;14.80;99.90;;;;;;4993397;28;20222;-84
2022/05/23 09:05:40;;;;;;;4.28;1.80;;;14.80;99.90;;;;;;4992647;28;20226;-84
2022/05/23 09:08:15;;;;;;;4.50;2.03;;;14.70;99.90;;;;;;4994496;28;20248;-84
2022/05/23 09:10:54;;;;;;;4.63;1.60;;;14.80;99.90;;;;;;4991680;28;20203;-83
2022/05/23 09:13:27;;;;;;;3.80;1.58;;;14.70;99.90;;;;;;4989752;28;20203;-83
2022/05/23 09:15:59;;;;;;;5.43;1.63;;;14.70;99.90;;;;;;4992600;28;20199;-84
2022/05/23 09:18:39;;;;;;;4.38;1.60;;;14.80;99.90;;;;;;4985334;28;20208;-84
2022/05/23 09:24:34;;;;;;;5.82;2.00;;;14.70;99.90;;;;;;4962045;28;20620;-83
2022/05/23 09:27:15;;;;;;;4.72;1.67;;;14.70;99.90;;;;;;4990203;28;20203;-84
2022/05/23 09:29:59;;;;;;;3.70;1.70;;;14.70;99.90;;;;;;4994144;28;20203;-84
2022/05/23 09:32:55;;;;;;;4.25;1.83;;;14.70;99.90;;;;;;4994111;28;20250;-83
2022/05/23 09:35:39;;;;;;;4.20;1.70;;;14.70;99.90;;;;;;4988017;28;20292;-83
2022/05/23 09:38:29;;;;;;;6.03;1.75;;;14.80;99.90;;;;;;4995046;28;20227;-84
2022/05/23 09:41:02;;;;;;;3.85;1.73;;;14.70;99.90;;;;;;4992957;28;20219;-84
2022/05/23 09:49:12;;;;;;;4.38;1.48;;;14.70;99.90;;;;;;4992297;28;20206;-84
2022/05/23 09:51:58;;;;;;;5.10;1.42;;;14.70;99.90;;;;;;4994199;28;20187;-84
2022/05/23 09:54:40;;;;;;;3.85;1.50;;;14.70;99.90;;;;;;4980112;28;20192;-83
2022/05/23 09:57:27;;;;;;;4.28;1.60;;;14.70;99.90;;;;;;4990425;28;20203;-84
2022/05/23 10:00:04;;;;;;;3.25;1.50;;;14.70;99.90;;;;;;4988486;28;20270;-84
2022/05/23 10:03:02;;;;;;;4.35;1.50;;;14.80;99.90;;;;;;4993222;28;20195;-84
2022/05/23 10:06:06;;;;;;;4.82;1.35;;;14.70;99.90;;;;;;4991621;28;20647;-84
2022/05/23 10:08:38;;;;;;;6.22;1.70;;;14.70;99.90;;;;;;4990265;28;20587;-84
2022/05/23 10:11:21;;;;;;;6.88;1.40;;;14.70;99.90;;;;;;4987372;28;20250;-85
2022/05/23 10:13:57;;;;;;;7.22;1.70;;;14.70;99.90;;;;;;4989169;28;20650;-83
2022/05/23 10:16:29;;;;;;;4.50;1.70;;;14.70;99.90;;;;;;4993146;28;20663;-84
2022/05/23 10:19:03;;;;;;;4.40;1.60;;;14.70;99.90;;;;;;4993219;28;20222;-84
2022/05/23 10:21:36;;;;;;;6.90;1.83;;;14.70;99.90;;;;;;4993573;28;20200;-84
2022/05/23 10:24:12;;;;;;;4.63;1.73;;;14.60;99.90;;;;;;4990423;28;20199;-84
2022/05/23 10:26:54;;;;;;;5.70;1.77;;;14.70;99.90;;;;;;4993614;28;20254;-84
2022/05/23 10:29:35;;;;;;;4.22;1.63;;;14.60;99.90;;;;;;4985654;28;20203;-84
2022/05/23 10:32:10;;;;;;;4.32;1.55;;;14.70;99.90;;;;;;4990367;28;20199;-84
2022/05/23 10:34:43;;;;;;;4.47;1.48;;;14.70;99.90;;;;;;4992641;28;20200;-84
2022/05/23 10:37:18;;;;;;;4.43;1.70;;;14.70;99.90;;;;;;4992491;28;20219;-84
2022/05/23 10:42:43;;;;;;;5.85;1.80;;;14.70;99.90;;;;;;4988650;28;20350;-84
2022/05/23 10:45:28;;;;;;;3.63;1.30;;;14.70;99.90;;;;;;4991047;28;20242;-83
2022/05/23 10:48:37;;;;;;;6.00;1.70;;;14.60;99.90;;;;;;4992506;28;20199;-83
2022/05/23 10:51:21;;;;;;;4.60;1.50;;;14.70;99.90;;;;;;4990559;28;20207;-85
2022/05/23 10:54:03;;;;;;;4.15;1.20;;;14.60;99.90;;;;;;4991437;28;20689;-83
2022/05/23 10:56:52;;;;;;;3.85;1.55;;;14.60;99.90;;;;;;4987876;28;20662;-84
2022/05/23 10:59:37;;;;;;;2.72;1.30;;;14.70;99.90;;;;;;4986839;28;20793;-84
2022/05/23 11:02:19;;;;;;;2.65;1.15;;;14.70;99.90;;;;;;4990323;28;20199;-84
2022/05/23 11:05:03;;;;;;;5.38;1.30;;;14.70;99.90;;;;;;4990996;28;20659;-84
2022/05/23 11:07:56;;;;;;;4.03;1.33;;;14.60;99.90;;;;;;4983837;28;20200;-84
2022/05/23 11:10:31;;;;;;;4.43;1.30;;;14.60;99.90;;;;;;4988791;28;21021;-84
2022/05/23 11:13:14;;;;;;;3.97;1.10;;;14.70;99.90;;;;;;4991522;28;20301;-84
2022/05/23 11:15:55;;;;;;;5.72;1.40;;;14.60;99.90;;;;;;4991305;28;20202;-84
2022/05/23 11:18:49;;;;;;;3.85;1.27;;;14.60;99.90;;;;;;4992264;28;20203;-83
2022/05/23 11:21:32;;;;;;;5.07;1.25;;;14.60;99.90;;;;;;4989589;28;20682;-84
2022/05/23 11:24:08;;;;;;;3.60;1.20;;;14.60;99.90;;;;;;4990183;28;20615;-84
2022/05/23 11:26:44;;;;;;;2.30;1.20;;;14.60;99.90;;;;;;4988693;28;20199;-83
2022/05/23 11:35:00;;;;;;;2.30;0.90;;;14.50;99.90;;;;;;4991541;28;20307;-84
2022/05/23 11:37:46;;;;;;;3.13;1.30;;;14.50;99.90;;;;;;4990316;28;20207;-84
2022/05/23 11:40:45;;;;;;;3.65;1.13;;;14.50;99.90;;;;;;4988075;28;20255;-83
2022/05/23 11:43:21;;;;;;;3.45;1.33;;;14.50;99.90;;;;;;4995622;28;20647;-83
2022/05/23 11:46:07;;;;;;;4.43;1.52;;;14.50;99.90;;;;;;4995832;28;20203;-83
2022/05/23 11:48:55;;;;;;;2.00;1.13;;;14.50;99.90;;;;;;4993055;28;20199;-84
2022/05/23 11:51:41;;;;;;;6.20;1.40;;;14.50;99.90;;;;;;4993326;28;20290;-84
2022/05/23 11:54:40;;;;;;;5.28;1.45;;;14.50;99.90;;;;;;4992938;28;20667;-84
2022/05/23 11:57:21;;;;;;;6.60;1.60;;;14.50;99.90;;;;;;4989017;28;20196;-84
2022/05/23 12:00:20;;;;;;;3.90;1.77;;;14.50;99.90;;;;;;4994442;28;20322;-84
2022/05/23 12:03:17;;;;;;;2.80;1.60;;;14.50;99.90;;;;;;4989698;28;20279;-84
2022/05/23 12:05:47;;;;;;;4.00;1.73;;;14.50;99.90;;;;;;4990297;28;20203;-84
2022/05/23 12:08:39;;;;;;;34.30;25.00;;;14.50;99.90;;;;;;4988011;28;20204;-84
2022/05/23 12:11:26;;;;;;;72.32;44.70;;;14.50;99.90;;;;;;4994454;28;20199;-85
2022/05/23 12:14:00;;;;;;;31.60;19.15;;;14.50;99.90;;;;;;4994867;28;20206;-83
2022/05/23 12:17:11;;;;;;;25.92;16.83;;;14.60;99.90;;;;;;4989527;28;20282;-83
2022/05/23 12:19:59;;;;;;;15.35;8.73;;;14.50;99.90;;;;;;4993462;28;20195;-82
2022/05/23 12:22:33;;;;;;;6.53;3.20;;;14.50;99.90;;;;;;4992058;28;20279;-83
2022/05/23 12:25:30;;;;;;;7.57;4.38;;;14.50;99.90;;;;;;4993450;28;20199;-83
2022/05/23 12:28:16;;;;;;;6.78;3.20;;;14.40;99.90;;;;;;4991835;28;20222;-82
2022/05/23 12:31:12;;;;;;;5.75;3.00;;;14.40;99.90;;;;;;4994534;28;20191;-83
2022/05/23 12:33:49;;;;;;;7.60;2.55;;;14.40;99.90;;;;;;4982121;28;20211;-82
2022/05/23 12:36:29;;;;;;;7.57;4.20;;;14.40;99.90;;;;;;4991941;28;20288;-82
2022/05/23 12:39:49;;;;;;;59.78;35.65;;;14.30;99.90;;;;;;4988957;28;20644;-83
2022/05/23 12:42:43;;;;;;;38.88;21.48;;;14.30;99.90;;;;;;4898075;29;20685;-84
2022/05/23 12:45:45;;;;;;;18.67;10.93;;;14.30;99.90;;;;;;4991325;28;20250;-84
2022/05/23 12:48:37;;;;;;;57.08;29.80;;;14.30;99.90;;;;;;4992204;28;20203;-84
2022/05/23 12:54:45;;;;;;;20.55;11.23;;;14.30;99.90;;;;;;4991264;28;20191;-85
2022/05/23 12:57:45;;;;;;;14.70;10.40;;;14.30;99.90;;;;;;4991921;28;20195;-85
2022/05/23 13:00:20;;;;;;;9.45;5.53;;;14.30;99.90;;;;;;4984376;28;20274;-85
2022/05/23 13:03:02;;;;;;;4.53;2.47;;;14.20;99.90;;;;;;4991879;28;20198;-85
2022/05/23 13:05:39;;;;;;;4.53;2.20;;;14.20;99.90;;;;;;4991411;28;20191;-84
2022/05/23 13:08:18;;;;;;;4.60;2.33;;;14.10;99.90;;;;;;4989830;28;20208;-84
2022/05/23 13:10:53;;;;;;;4.22;2.17;;;14.10;99.90;;;;;;4991299;28;20209;-85
2022/05/23 13:13:31;;;;;;;4.15;2.78;;;14.10;99.90;;;;;;4990415;28;20207;-86
2022/05/23 13:22:10;;;;;;;7.25;2.20;;;13.90;99.90;;;;;;5112221;28;20726;-84
2022/05/23 13:24:55;;;;;;;5.13;2.25;;;13.90;99.90;;;;;;5108385;28;20274;-84
2022/05/23 13:27:34;;;;;;;4.43;2.00;;;13.90;99.90;;;;;;5104376;28;20643;-83
2022/05/23 13:30:09;;;;;;;4.50;2.10;;;13.90;99.90;;;;;;5105362;28;20195;-84
2022/05/23 13:32:42;;;;;;;4.97;2.20;;;13.90;99.90;;;;;;5106896;28;20195;-83
2022/05/23 13:35:27;;;;;;;8.05;2.60;;;13.80;99.90;;;;;;5105320;28;20187;-83
2022/05/23 13:37:58;;;;;;;3.90;2.28;;;13.80;99.90;;;;;;5108358;28;20217;-83
2022/05/23 13:40:31;;;;;;;4.47;2.60;;;13.80;99.90;;;;;;5108522;28;20218;-84
2022/05/23 13:43:13;;;;;;;3.67;2.40;;;13.80;99.90;;;;;;5105380;28;20180;-84
2022/05/23 13:45:46;;;;;;;4.45;2.50;;;13.70;99.90;;;;;;5108355;28;20200;-84
2022/05/23 13:48:24;;;;;;;4.53;2.47;;;13.70;99.90;;;;;;5108548;28;20639;-83
2022/05/23 13:51:00;;;;;;;5.18;2.22;;;13.70;99.90;;;;;;5102234;28;20199;-84
2022/05/23 13:53:39;;;;;;;4.45;2.30;;;13.70;99.90;;;;;;5098427;28;20194;-83
2022/05/23 13:56:11;;;;;;;7.55;2.22;;;13.70;99.90;;;;;;5107347;28;20191;-84
2022/05/23 13:58:47;;;;;;;4.20;2.25;;;13.70;99.90;;;;;;5103335;28;20228;-83
2022/05/23 14:01:26;;;;;;;3.65;2.40;;;13.60;99.90;;;;;;5088467;28;20192;-84
2022/05/23 14:04:02;;;;;;;4.93;2.72;;;13.60;99.90;;;;;;5081046;28;20212;-84
2022/05/23 14:06:39;;;;;;;4.60;2.40;;;13.50;99.90;;;;;;5090836;28;20196;-84
2022/05/23 14:09:10;;;;;;;6.15;2.22;;;13.50;99.90;;;;;;5083812;28;20204;-83
2022/05/23 14:11:48;;;;;;;3.10;2.38;;;13.50;99.90;;;;;;5083616;28;20717;-84
2022/05/23 14:14:23;;;;;;;4.30;2.40;;;13.50;99.90;;;;;;5085856;28;20192;-85
2022/05/23 14:16:58;;;;;;;3.85;2.50;;;13.50;99.90;;;;;;5085922;28;20224;-84
2022/05/23 14:19:31;;;;;;;4.07;2.47;;;13.50;99.90;;;;;;5088821;28;20200;-85
2022/05/23 14:22:14;;;;;;;4.88;2.42;;;13.50;99.90;;;;;;5086433;28;20560;-85
2022/05/23 14:24:47;;;;;;;4.38;2.60;;;13.50;99.90;;;;;;5086573;28;20279;-84
2022/05/23 14:27:25;;;;;;;5.80;2.40;;;13.50;99.90;;;;;;5088212;28;20647;-85
2022/05/23 14:30:14;;;;;;;5.18;2.53;;;13.60;99.90;;;;;;5075594;28;20651;-85
2022/05/23 14:32:54;;;;;;;5.90;2.80;;;13.50;99.90;;;;;;5073171;28;20201;-86
2022/05/23 14:35:28;;;;;;;4.40;2.30;;;13.40;99.90;;;;;;5073421;28;20189;-86